createdAt,value
2019-04-21T00:02:55.424Z,13.97
2019-04-21T00:08:27.156Z,13.37
2019-04-21T00:13:12.466Z,13.57
2019-04-21T00:18:10.439Z,14.23
2019-04-21T00:23:26.813Z,13.80
2019-04-21T00:28:42.485Z,12.97
2019-04-21T00:33:30.041Z,12.20
2019-04-21T00:39:14.318Z,12.93
2019-04-21T00:44:00.787Z,11.40
2019-04-21T00:49:02.099Z,13.63
2019-04-21T00:54:18.439Z,12.30
2019-04-21T00:59:14.926Z,12.70
2019-04-21T01:04:21.408Z,13.07
2019-04-21T01:09:08.038Z,13.80
2019-04-21T01:14:21.971Z,14.00
2019-04-21T01:19:18.337Z,13.90
2019-04-21T01:24:05.464Z,14.00
2019-04-21T01:29:15.496Z,14.10
2019-04-21T01:34:33.195Z,14.90
2019-04-21T01:39:41.187Z,14.40
2019-04-21T01:49:29.552Z,15.10
2019-04-21T01:55:00.417Z,14.60
2019-04-21T01:59:51.238Z,14.63
2019-04-21T02:05:03.117Z,13.10
2019-04-21T02:10:06.466Z,13.17
2019-04-21T02:15:11.538Z,13.10
2019-04-21T02:20:01.699Z,12.00
2019-04-21T02:25:16.596Z,12.90
2019-04-21T02:30:18.478Z,13.60
2019-04-21T02:35:40.602Z,13.30
2019-04-21T02:40:25.561Z,14.90
2019-04-21T02:45:23.193Z,14.80
2019-04-21T02:50:22.428Z,13.40
2019-04-21T02:55:25.975Z,13.57
2019-04-21T03:00:32.949Z,13.83
2019-04-21T03:10:59.243Z,13.17
2019-04-21T03:16:12.358Z,13.00
2019-04-21T03:21:12.327Z,12.30
2019-04-21T03:26:12.473Z,12.80
2019-04-21T03:36:33.287Z,13.17
2019-04-21T03:41:10.613Z,13.37
2019-04-21T03:46:08.566Z,12.13
2019-04-21T03:51:15.942Z,11.77
2019-04-21T03:56:25.401Z,13.27
2019-04-21T04:01:16.435Z,11.77
2019-04-21T04:06:57.102Z,13.20
2019-04-21T04:11:53.002Z,12.73
2019-04-21T04:27:02.376Z,13.37
2019-04-21T04:32:14.544Z,12.10
2019-04-21T04:37:05.568Z,13.20
2019-04-21T04:42:27.094Z,14.60
2019-04-21T04:47:16.838Z,13.30
2019-04-21T04:57:45.520Z,14.70
2019-04-21T05:02:33.180Z,17.30
2019-04-21T05:12:16.069Z,16.00
2019-04-21T05:27:25.318Z,16.90
2019-04-21T05:33:24.469Z,16.40
2019-04-21T05:38:17.719Z,15.60
2019-04-21T05:43:26.011Z,16.37
2019-04-21T05:48:36.396Z,15.10
2019-04-21T05:53:36.108Z,11.90
2019-04-21T05:58:34.703Z,13.00
2019-04-21T06:08:37.323Z,9.90
2019-04-21T06:18:48.368Z,11.60
2019-04-21T06:23:43.589Z,10.60
2019-04-21T06:28:46.986Z,10.67
2019-04-21T06:33:48.823Z,9.67
2019-04-21T06:49:00.157Z,10.50
2019-04-21T06:58:57.984Z,8.87
2019-04-21T07:04:09.916Z,8.37
2019-04-21T07:09:10.367Z,7.60
2019-04-21T07:14:21.962Z,6.70
2019-04-21T07:19:13.884Z,6.53
2019-04-21T07:24:10.348Z,6.07
2019-04-21T07:29:12.606Z,6.03
2019-04-21T07:34:28.874Z,5.87
2019-04-21T07:39:06.239Z,5.30
2019-04-21T07:43:59.193Z,5.20
2019-04-21T07:49:12.465Z,5.67
2019-04-21T07:54:23.837Z,5.17
2019-04-21T07:59:25.615Z,4.97
2019-04-21T08:04:37.857Z,5.90
2019-04-21T08:09:18.255Z,5.40
2019-04-21T08:14:24.018Z,4.40
2019-04-21T08:19:29.654Z,5.10
2019-04-21T08:24:27.197Z,4.77
2019-04-21T08:34:29.909Z,5.90
2019-04-21T08:39:45.549Z,6.57
2019-04-21T08:44:35.261Z,6.00
2019-04-21T08:49:35.096Z,5.20
2019-04-21T08:54:36.557Z,7.97
2019-04-21T09:00:16.808Z,7.57
2019-04-21T09:05:05.066Z,5.00
2019-04-21T09:10:09.388Z,6.20
2019-04-21T09:15:08.374Z,6.40
2019-04-21T09:20:17.037Z,5.10
2019-04-21T09:25:19.693Z,4.93
2019-04-21T09:30:01.059Z,7.00
2019-04-21T09:35:03.431Z,5.67
2019-04-21T09:40:01.343Z,5.27
2019-04-21T09:45:05.784Z,5.33
2019-04-21T09:50:04.887Z,6.07
2019-04-21T09:55:12.485Z,5.50
2019-04-21T10:00:14.222Z,5.23
2019-04-21T10:05:09.963Z,4.53
2019-04-21T10:10:11.154Z,4.60
2019-04-21T10:15:10.880Z,3.13
2019-04-21T10:20:13.822Z,3.00
2019-04-21T10:25:15.022Z,3.07
2019-04-21T10:30:16.213Z,3.30
2019-04-21T10:35:20.696Z,3.07
2019-04-21T10:40:18.514Z,3.67
2019-04-21T10:45:19.009Z,3.23
2019-04-21T10:50:20.365Z,3.33
2019-04-21T10:55:36.725Z,3.00
2019-04-21T11:00:23.933Z,3.20
2019-04-21T11:05:24.911Z,2.60
2019-04-21T11:10:25.774Z,3.13
2019-04-21T11:15:27.358Z,3.00
2019-04-21T11:20:27.159Z,2.80
2019-04-21T11:25:28.142Z,3.00
2019-04-21T11:30:28.085Z,3.03
2019-04-21T11:35:27.838Z,2.67
2019-04-21T11:40:27.765Z,3.30
2019-04-21T11:45:32.860Z,2.70
2019-04-21T11:50:34.986Z,3.50
2019-04-21T11:55:39.776Z,3.20
2019-04-21T12:00:37.518Z,3.07
2019-04-21T12:05:37.382Z,2.80
2019-04-21T12:10:37.643Z,2.90
2019-04-21T12:15:38.829Z,2.83
2019-04-21T12:20:39.711Z,3.07
2019-04-21T12:25:42.975Z,3.17
2019-04-21T12:30:45.269Z,2.80
2019-04-21T12:35:46.006Z,2.67
2019-04-21T12:40:46.558Z,2.60
2019-04-21T12:45:47.490Z,2.73
2019-04-21T12:50:47.937Z,2.97
2019-04-21T12:55:48.064Z,3.20
2019-04-21T13:00:49.594Z,2.27
2019-04-21T13:05:49.605Z,2.77
2019-04-21T13:10:49.403Z,2.23
2019-04-21T13:15:49.466Z,3.13
2019-04-21T13:20:49.265Z,2.80
2019-04-21T13:25:49.884Z,2.97
2019-04-21T13:30:50.630Z,3.17
2019-04-21T13:35:53.028Z,3.40
2019-04-21T13:41:29.451Z,3.00
2019-04-21T13:46:17.668Z,3.57
2019-04-21T13:51:17.834Z,3.03
2019-04-21T13:56:18.458Z,2.90
2019-04-21T14:01:18.210Z,3.23
2019-04-21T14:06:18.431Z,3.07
2019-04-21T14:11:23.165Z,2.77
2019-04-21T14:16:24.366Z,2.93
2019-04-21T14:21:25.067Z,2.83
2019-04-21T14:26:25.023Z,2.80
2019-04-21T14:31:26.352Z,2.93
2019-04-21T14:36:26.533Z,2.93
2019-04-21T14:41:26.446Z,2.90
2019-04-21T14:46:44.913Z,2.90
2019-04-21T14:51:58.984Z,3.07
2019-04-21T14:56:58.843Z,2.83
2019-04-21T15:01:59.857Z,3.93
2019-04-21T15:06:59.717Z,2.70
2019-04-21T15:12:00.209Z,3.20
2019-04-21T15:17:00.945Z,3.33
2019-04-21T15:22:02.674Z,4.23
2019-04-21T15:27:03.103Z,3.13
2019-04-21T15:32:04.223Z,3.30
2019-04-21T15:37:04.172Z,3.33
2019-04-21T15:42:03.986Z,3.00
2019-04-21T15:47:05.933Z,3.40
2019-04-21T15:52:05.997Z,3.47
2019-04-21T15:57:11.233Z,3.00
2019-04-21T16:02:28.930Z,2.67
2019-04-21T16:07:31.925Z,4.10
2019-04-21T16:12:37.637Z,3.97
2019-04-21T16:17:43.377Z,3.57
2019-04-21T16:22:44.416Z,3.23
2019-04-21T16:27:45.489Z,2.90
2019-04-21T16:32:45.988Z,3.93
2019-04-21T16:37:45.872Z,3.67
2019-04-21T16:42:45.904Z,3.37
2019-04-21T16:47:47.429Z,3.20
2019-04-21T16:53:08.146Z,3.67
2019-04-21T16:58:28.745Z,2.93
2019-04-21T17:03:28.341Z,3.00
2019-04-21T17:08:28.231Z,2.40
2019-04-21T17:13:29.564Z,2.80
2019-04-21T17:18:43.510Z,3.30
2019-04-21T17:23:31.442Z,3.00
2019-04-21T17:28:32.173Z,2.40
2019-04-21T17:33:33.529Z,3.13
2019-04-21T17:38:34.243Z,2.90
2019-04-21T17:43:34.141Z,3.00
2019-04-21T17:48:34.720Z,3.13
2019-04-21T17:53:47.524Z,3.57
2019-04-21T17:59:07.341Z,3.30
2019-04-21T18:04:12.701Z,3.70
2019-04-21T18:09:13.872Z,3.27
2019-04-21T18:13:59.766Z,3.70
2019-04-21T18:18:59.803Z,3.10
2019-04-21T18:24:10.662Z,3.20
2019-04-21T18:29:03.473Z,3.63
2019-04-21T18:34:16.284Z,4.50
2019-04-21T18:39:48.612Z,5.00
2019-04-21T18:45:34.743Z,4.67
2019-04-21T18:50:01.665Z,3.60
2019-04-21T18:55:14.701Z,4.80
2019-04-21T19:00:12.788Z,4.87
2019-04-21T19:05:11.524Z,5.20
2019-04-21T19:10:39.645Z,5.30
2019-04-21T19:15:30.050Z,6.53
2019-04-21T19:20:32.773Z,6.00
2019-04-21T19:25:38.118Z,5.90
2019-04-21T19:30:46.631Z,5.37
2019-04-21T19:35:19.395Z,6.10
2019-04-21T19:40:44.729Z,5.70
2019-04-21T19:45:45.012Z,5.23
2019-04-21T19:50:51.537Z,5.70
2019-04-21T19:55:38.287Z,5.80
2019-04-21T20:00:42.574Z,5.90
2019-04-21T20:05:49.504Z,5.43
2019-04-21T20:11:05.347Z,6.20
2019-04-21T20:16:09.631Z,6.30
2019-04-21T20:20:48.132Z,5.70
2019-04-21T20:25:54.716Z,5.90
2019-04-21T20:31:12.833Z,6.43
2019-04-21T20:36:21.062Z,6.50
2019-04-21T20:41:20.051Z,6.30
2019-04-21T20:46:15.677Z,6.50
2019-04-21T20:51:23.599Z,6.57
2019-04-21T20:56:15.600Z,6.50
2019-04-21T21:01:40.011Z,7.60
2019-04-21T21:06:26.072Z,6.87
2019-04-21T21:11:29.571Z,6.60
2019-04-21T21:16:35.494Z,6.30
2019-04-21T21:21:32.479Z,6.80
2019-04-21T21:26:36.688Z,7.40
2019-04-21T21:31:37.191Z,6.53
2019-04-21T21:36:38.192Z,6.23
2019-04-21T21:41:28.818Z,6.13
2019-04-21T21:46:43.039Z,5.87
2019-04-21T21:51:39.252Z,6.00
2019-04-21T21:56:26.747Z,5.93
2019-04-21T22:01:35.639Z,5.80
2019-04-21T22:06:41.085Z,6.17
2019-04-21T22:11:29.876Z,5.57
2019-04-21T22:16:46.650Z,5.63
2019-04-21T22:21:50.551Z,5.77
2019-04-21T22:26:33.207Z,5.83
2019-04-21T22:31:38.907Z,5.30
2019-04-21T22:36:50.575Z,6.57
2019-04-21T22:41:43.131Z,5.77
2019-04-21T22:46:52.995Z,5.13
2019-04-21T22:51:46.478Z,5.07
2019-04-21T22:56:52.834Z,5.47
2019-04-21T23:01:50.095Z,4.73
2019-04-21T23:06:51.310Z,4.90
2019-04-21T23:11:50.532Z,5.90
2019-04-21T23:16:53.957Z,4.87
2019-04-21T23:22:07.107Z,4.90
2019-04-21T23:27:05.136Z,4.60
2019-04-21T23:32:08.481Z,4.53
2019-04-21T23:37:04.397Z,4.80
2019-04-21T23:41:57.775Z,4.77
2019-04-21T23:47:02.747Z,4.23
2019-04-21T23:52:03.098Z,4.30
2019-04-21T23:57:02.866Z,4.63
